createdAt,value
2022-08-16T00:03:30.504Z,5.51
2022-08-16T00:08:37.317Z,5.57
2022-08-16T00:13:42.484Z,5.55
2022-08-16T00:18:48.481Z,5.83
2022-08-16T00:23:54.808Z,5.84
2022-08-16T00:29:01.285Z,5.80
2022-08-16T00:34:07.033Z,6.24
2022-08-16T00:39:15.576Z,6.51
2022-08-16T00:44:18.445Z,6.58
2022-08-16T00:49:24.660Z,6.69
2022-08-16T00:54:30.789Z,6.91
2022-08-16T00:59:36.594Z,8.10
2022-08-16T01:04:42.337Z,8.81
2022-08-16T01:09:48.275Z,10.20
2022-08-16T01:14:53.933Z,11.69
2022-08-16T01:20:00.581Z,12.32
2022-08-16T01:25:06.356Z,12.04
2022-08-16T01:30:19.458Z,13.69
2022-08-16T01:35:18.029Z,13.81
2022-08-16T01:40:24.012Z,15.29
2022-08-16T01:45:39.638Z,14.96
2022-08-16T01:50:41.940Z,15.32
2022-08-16T01:55:41.251Z,15.33
2022-08-16T02:00:47.544Z,14.12
2022-08-16T02:05:53.681Z,14.71
2022-08-16T02:10:59.947Z,15.21
2022-08-16T02:16:06.081Z,15.55
2022-08-16T02:21:11.997Z,14.90
2022-08-16T02:26:18.754Z,15.79
2022-08-16T02:32:03.244Z,15.53
2022-08-16T02:36:48.050Z,16.79
2022-08-16T02:41:37.429Z,15.59
2022-08-16T02:46:40.949Z,16.38
2022-08-16T02:51:46.744Z,17.61
2022-08-16T02:56:52.428Z,17.91
2022-08-16T03:01:58.332Z,16.56
2022-08-16T03:07:04.568Z,17.16
2022-08-16T03:12:11.245Z,16.47
2022-08-16T03:17:16.973Z,16.80
2022-08-16T03:22:28.347Z,18.34
2022-08-16T03:27:30.812Z,17.08
2022-08-16T03:32:34.233Z,17.68
2022-08-16T03:38:01.634Z,16.99
2022-08-16T03:43:19.151Z,16.14
2022-08-16T03:47:51.888Z,16.93
2022-08-16T03:53:02.174Z,15.96
2022-08-16T03:58:03.601Z,15.91
2022-08-16T04:03:09.461Z,16.75
2022-08-16T04:08:22.386Z,15.82
2022-08-16T04:14:00.856Z,17.16
2022-08-16T04:18:27.135Z,17.11
2022-08-16T04:23:33.108Z,18.97
2022-08-16T04:28:53.594Z,19.11
2022-08-16T04:33:50.955Z,19.37
2022-08-16T04:38:52.487Z,19.28
2022-08-16T04:43:57.011Z,20.91
2022-08-16T04:49:03.194Z,20.02
2022-08-16T04:54:09.398Z,20.05
2022-08-16T04:59:15.524Z,20.76
2022-08-16T05:04:21.504Z,20.97
2022-08-16T05:09:29.032Z,20.72
2022-08-16T05:14:45.582Z,21.06
2022-08-16T05:19:40.704Z,21.05
2022-08-16T05:24:46.724Z,23.10
2022-08-16T05:29:57.663Z,22.50
2022-08-16T05:34:58.929Z,22.36
2022-08-16T05:40:06.174Z,20.34
2022-08-16T05:45:10.672Z,19.71
2022-08-16T05:50:19.265Z,21.86
2022-08-16T05:55:23.041Z,21.93
2022-08-16T06:00:30.785Z,22.58
2022-08-16T06:05:41.403Z,23.96
2022-08-16T06:11:09.882Z,21.14
2022-08-16T06:15:52.197Z,25.22
2022-08-16T06:20:59.933Z,25.76
2022-08-16T06:26:07.609Z,25.88
2022-08-16T06:31:12.202Z,24.04
2022-08-16T06:36:17.125Z,25.19
2022-08-16T06:41:22.844Z,25.77
2022-08-16T06:47:21.356Z,25.71
2022-08-16T06:52:58.490Z,24.10
2022-08-16T06:57:33.201Z,24.79
2022-08-16T07:02:39.308Z,24.13
2022-08-16T07:07:45.311Z,21.91
2022-08-16T07:13:03.898Z,22.68
2022-08-16T07:18:07.606Z,24.55
2022-08-16T07:23:13.084Z,23.25
2022-08-16T07:28:20.835Z,21.84
2022-08-16T07:33:53.231Z,21.96
2022-08-16T07:38:33.586Z,19.84
2022-08-16T07:43:36.188Z,18.80
2022-08-16T07:48:42.020Z,17.25
2022-08-16T07:53:47.647Z,15.81
2022-08-16T07:58:57.812Z,16.93
2022-08-16T08:04:02.565Z,16.51
2022-08-16T08:09:07.717Z,16.92
2022-08-16T08:14:29.943Z,16.44
2022-08-16T08:19:19.703Z,15.53
2022-08-16T08:24:32.033Z,16.32
2022-08-16T08:29:37.165Z,16.78
2022-08-16T08:34:37.532Z,15.86
2022-08-16T08:39:54.567Z,14.79
2022-08-16T08:44:49.869Z,17.51
2022-08-16T08:49:56.196Z,16.41
2022-08-16T08:55:01.953Z,16.49
2022-08-16T09:00:13.700Z,14.85
2022-08-16T09:05:15.763Z,15.18
2022-08-16T09:10:20.285Z,15.33
2022-08-16T09:15:25.407Z,14.35
2022-08-16T09:20:31.943Z,13.64
2022-08-16T09:25:38.118Z,13.12
2022-08-16T09:30:44.998Z,11.93
2022-08-16T09:35:53.545Z,11.48
2022-08-16T09:40:56.702Z,10.29
2022-08-16T09:46:02.747Z,9.00
2022-08-16T09:51:10.156Z,8.88
2022-08-16T09:56:15.800Z,7.46
2022-08-16T10:01:21.620Z,6.83
2022-08-16T10:06:27.314Z,6.04
2022-08-16T10:11:33.178Z,6.50
2022-08-16T10:16:39.084Z,8.59
2022-08-16T10:21:46.052Z,6.57
2022-08-16T10:27:17.574Z,6.87
2022-08-16T10:31:58.528Z,5.92
2022-08-16T10:37:04.239Z,6.18
2022-08-16T10:42:13.096Z,5.67
2022-08-16T10:47:16.903Z,5.99
2022-08-16T10:52:24.317Z,5.84
2022-08-16T10:57:32.997Z,6.01
2022-08-16T11:02:59.578Z,6.70
2022-08-16T11:07:45.437Z,6.59
2022-08-16T11:12:46.951Z,5.78
2022-08-16T11:18:48.017Z,6.17
2022-08-16T11:22:59.036Z,6.24
2022-08-16T11:28:04.694Z,6.12
2022-08-16T11:33:11.001Z,5.72
2022-08-16T11:38:46.848Z,5.09
2022-08-16T11:43:22.916Z,4.87
2022-08-16T11:48:29.084Z,4.82
2022-08-16T11:53:36.212Z,4.81
2022-08-16T11:58:41.862Z,4.49
2022-08-16T12:03:48.594Z,4.73
2022-08-16T12:08:54.624Z,4.38
2022-08-16T12:14:00.852Z,4.59
2022-08-16T12:19:06.967Z,4.53
2022-08-16T12:24:13.540Z,4.91
2022-08-16T12:29:19.771Z,4.84
2022-08-16T12:34:29.044Z,5.08
2022-08-16T12:39:31.931Z,4.87
2022-08-16T12:44:38.924Z,4.92
2022-08-16T12:49:45.226Z,4.72
2022-08-16T12:54:55.049Z,4.76
2022-08-16T12:59:56.317Z,4.73
2022-08-16T13:05:03.197Z,4.87
2022-08-16T13:10:21.146Z,4.93
2022-08-16T13:15:15.177Z,5.08
2022-08-16T13:20:21.324Z,4.45
2022-08-16T13:25:27.641Z,4.53
2022-08-16T13:30:36.025Z,4.68
2022-08-16T13:35:42.698Z,4.82
2022-08-16T13:40:45.824Z,5.07
2022-08-16T13:45:51.670Z,5.31
2022-08-16T13:51:02.490Z,5.27
2022-08-16T13:56:03.319Z,4.92
2022-08-16T14:01:10.027Z,4.47
2022-08-16T14:06:15.196Z,4.78
2022-08-16T14:11:20.938Z,4.67
2022-08-16T14:16:33.729Z,4.43
2022-08-16T14:21:35.493Z,4.47
2022-08-16T14:26:39.197Z,4.46
2022-08-16T14:31:44.845Z,4.53
2022-08-16T14:36:52.047Z,4.13
2022-08-16T14:41:56.778Z,4.45
2022-08-16T14:47:03.126Z,4.39
2022-08-16T14:52:08.800Z,4.08
2022-08-16T14:57:15.166Z,4.05
2022-08-16T15:02:33.925Z,4.38
2022-08-16T15:07:27.837Z,3.93
2022-08-16T15:12:33.564Z,3.69
2022-08-16T15:17:38.185Z,4.32
2022-08-16T15:22:44.412Z,4.11
2022-08-16T15:27:55.141Z,4.12
2022-08-16T15:32:57.166Z,4.44
2022-08-16T15:38:03.068Z,4.30
2022-08-16T15:43:08.704Z,4.23
2022-08-16T15:48:14.493Z,4.13
2022-08-16T15:53:20.143Z,4.26
2022-08-16T15:58:34.607Z,4.42
2022-08-16T16:03:34.759Z,4.35
2022-08-16T16:08:41.573Z,4.20
2022-08-16T16:13:43.416Z,3.97
2022-08-16T16:18:49.893Z,4.38
2022-08-16T16:23:57.959Z,4.35
2022-08-16T16:29:08.122Z,4.12
2022-08-16T16:34:07.885Z,4.31
2022-08-16T16:39:13.785Z,4.25
2022-08-16T16:44:32.026Z,4.22
2022-08-16T16:49:25.725Z,4.52
2022-08-16T16:54:31.458Z,4.27
2022-08-16T16:59:37.769Z,4.25
2022-08-16T17:04:43.394Z,4.00
2022-08-16T17:09:49.732Z,4.65
2022-08-16T17:14:55.974Z,5.13
2022-08-16T17:20:01.888Z,4.86
2022-08-16T17:25:08.334Z,5.78
2022-08-16T17:30:16.518Z,5.99
2022-08-16T17:35:20.300Z,5.87
2022-08-16T17:40:47.225Z,6.39
2022-08-16T17:45:32.557Z,6.29
2022-08-16T17:51:44.361Z,6.97
2022-08-16T17:56:50.741Z,8.04
2022-08-16T18:01:56.761Z,7.53
2022-08-16T18:07:02.814Z,8.26
2022-08-16T18:12:09.680Z,10.06
2022-08-16T18:17:15.322Z,10.47
2022-08-16T18:22:21.558Z,11.39
2022-08-16T18:27:27.720Z,10.88
2022-08-16T18:32:34.053Z,11.42
2022-08-16T18:37:40.237Z,11.32
2022-08-16T18:42:46.535Z,11.09
2022-08-16T18:47:53.457Z,11.56
2022-08-16T18:52:59.789Z,11.39
2022-08-16T18:58:05.908Z,11.95
2022-08-16T19:03:11.685Z,11.95
2022-08-16T19:08:17.929Z,14.21
2022-08-16T19:13:24.201Z,13.71
2022-08-16T19:18:30.407Z,14.12
2022-08-16T19:23:37.214Z,15.18
2022-08-16T19:28:57.670Z,17.37
2022-08-16T19:33:54.264Z,17.73
2022-08-16T19:38:53.537Z,17.70
2022-08-16T19:43:59.965Z,17.00
2022-08-16T19:49:07.955Z,16.86
2022-08-16T19:54:14.962Z,17.94
2022-08-16T19:59:22.450Z,17.88
2022-08-16T20:04:26.905Z,18.80
2022-08-16T20:09:33.093Z,17.67
2022-08-16T20:14:39.621Z,17.50
2022-08-16T20:19:45.884Z,18.42
2022-08-16T20:24:52.177Z,17.36
2022-08-16T20:29:58.137Z,17.16
2022-08-16T20:35:04.464Z,19.25
2022-08-16T20:40:29.601Z,18.77
2022-08-16T20:45:17.565Z,18.38
2022-08-16T20:50:23.669Z,18.49
2022-08-16T20:55:29.874Z,17.95
2022-08-16T21:00:36.073Z,18.78
2022-08-16T21:05:46.218Z,17.81
2022-08-16T21:10:50.636Z,17.82
2022-08-16T21:15:56.874Z,17.67
2022-08-16T21:21:03.092Z,17.57
2022-08-16T21:26:10.685Z,17.39
2022-08-16T21:31:15.241Z,18.19
2022-08-16T21:36:34.956Z,17.98
2022-08-16T21:41:27.668Z,18.59
2022-08-16T21:46:34.045Z,17.99
2022-08-16T21:51:40.233Z,19.01
2022-08-16T21:56:46.956Z,19.01
2022-08-16T22:01:53.100Z,19.16
2022-08-16T22:06:59.281Z,18.51
2022-08-16T22:12:05.435Z,18.96
2022-08-16T22:17:11.682Z,19.24
2022-08-16T22:22:17.824Z,19.02
2022-08-16T22:27:23.999Z,19.65
2022-08-16T22:32:30.178Z,19.74
2022-08-16T22:37:36.455Z,20.69
2022-08-16T22:42:42.686Z,20.23
2022-08-16T22:47:48.986Z,21.47
2022-08-16T22:52:56.636Z,21.96
2022-08-16T22:58:00.944Z,20.39
2022-08-16T23:03:07.151Z,22.82
2022-08-16T23:08:13.458Z,21.86
2022-08-16T23:13:19.582Z,22.62
2022-08-16T23:18:27.075Z,22.67
2022-08-16T23:23:31.718Z,24.23
2022-08-16T23:28:38.094Z,23.97
2022-08-16T23:33:44.431Z,24.54
2022-08-16T23:38:50.693Z,22.76
2022-08-16T23:43:56.783Z,25.44
2022-08-16T23:49:55.845Z,23.16
2022-08-16T23:54:08.889Z,23.25
2022-08-16T23:59:15.906Z,23.06
